Time;durP1;ratioP1;P1;durP2;ratioP2;P2;SDS_P1;SDS_P2;PMS_P1;PMS_P2;Temp;Humidity;BMP_temperature;BMP_pressure;BME280_temperature;BME280_humidity;BME280_pressure;Samples;Min_cycle;Max_cycle;Signal;HPM_P1;HPM_P2
2023/07/31 00:01:04;;;;;;;4.32;3.65;;;15.70;99.90;;;;;;5016371;28;20025;-81
2023/07/31 00:03:29;;;;;;;6.03;4.07;;;15.70;99.90;;;;;;5014616;28;20049;-81
2023/07/31 00:05:55;;;;;;;5.78;4.03;;;15.70;99.90;;;;;;5016298;28;20139;-81
2023/07/31 00:08:20;;;;;;;5.47;3.85;;;15.70;99.90;;;;;;5077810;28;20104;-81
2023/07/31 00:10:46;;;;;;;5.85;4.35;;;15.60;99.90;;;;;;5016007;28;20068;-80
2023/07/31 00:13:12;;;;;;;5.95;4.57;;;15.70;99.90;;;;;;5016160;28;20017;-81
2023/07/31 00:15:37;;;;;;;4.50;3.72;;;15.70;99.90;;;;;;5014613;28;20025;-80
2023/07/31 00:18:03;;;;;;;6.43;4.65;;;15.70;99.90;;;;;;5014597;28;20054;-80
2023/07/31 00:20:28;;;;;;;5.13;4.22;;;15.70;99.90;;;;;;5014533;28;20109;-80
2023/07/31 00:22:54;;;;;;;7.32;4.80;;;15.70;99.90;;;;;;5014584;28;20447;-82
2023/07/31 00:25:20;;;;;;;8.70;4.85;;;15.70;99.90;;;;;;5016066;28;20433;-80
2023/07/31 00:27:46;;;;;;;6.03;5.43;;;15.70;99.90;;;;;;5011240;28;20124;-80
2023/07/31 00:30:11;;;;;;;5.70;5.20;;;15.70;99.90;;;;;;5101186;28;20469;-80
2023/07/31 00:32:37;;;;;;;10.38;5.28;;;15.70;99.90;;;;;;5051393;28;20024;-80
2023/07/31 00:35:03;;;;;;;5.55;4.82;;;15.70;99.90;;;;;;5039886;28;20543;-81
2023/07/31 00:37:29;;;;;;;6.38;5.78;;;15.70;99.90;;;;;;5078809;28;20026;-80
2023/07/31 00:39:54;;;;;;;5.35;4.70;;;15.60;99.90;;;;;;5014459;28;20079;-81
2023/07/31 00:42:20;;;;;;;8.98;5.15;;;15.60;99.90;;;;;;5015675;28;20061;-81
2023/07/31 00:44:45;;;;;;;5.53;5.03;;;15.50;99.90;;;;;;5023733;28;20459;-81
2023/07/31 00:47:11;;;;;;;5.70;5.07;;;15.50;99.90;;;;;;5067896;28;20029;-81
2023/07/31 00:49:37;;;;;;;5.78;4.90;;;15.40;99.90;;;;;;5014027;28;20030;-81
2023/07/31 00:52:03;;;;;;;5.28;4.72;;;15.30;99.90;;;;;;5014143;28;20034;-81
2023/07/31 00:54:29;;;;;;;7.68;4.70;;;15.30;99.90;;;;;;5014185;28;20022;-81
2023/07/31 00:56:55;;;;;;;6.43;4.85;;;15.30;99.90;;;;;;5014546;28;20025;-81
2023/07/31 00:59:20;;;;;;;5.30;4.80;;;15.30;99.90;;;;;;5014986;28;20405;-81
2023/07/31 01:01:46;;;;;;;8.00;5.60;;;15.30;99.90;;;;;;5020257;28;20030;-81
2023/07/31 01:04:13;;;;;;;7.88;5.00;;;15.20;99.90;;;;;;5065855;28;20024;-81
2023/07/31 01:07:03;;;;;;;6.30;5.18;;;15.20;99.90;;;;;;5010736;28;20388;-81
2023/07/31 01:09:42;;;;;;;6.47;4.50;;;15.20;99.90;;;;;;5010952;28;20056;-82
2023/07/31 01:12:12;;;;;;;8.48;4.78;;;15.10;99.90;;;;;;5010905;28;20022;-81
2023/07/31 01:14:38;;;;;;;7.97;5.93;;;15.10;99.90;;;;;;5012122;28;20428;-81
2023/07/31 01:17:04;;;;;;;8.30;6.38;;;15.00;99.90;;;;;;5012163;28;20026;-81
2023/07/31 01:19:30;;;;;;;6.38;5.75;;;15.00;99.90;;;;;;5010375;28;20361;-81
2023/07/31 01:22:34;;;;;;;6.95;6.22;;;15.00;99.90;;;;;;5011729;28;20057;-81
2023/07/31 01:25:38;;;;;;;6.68;5.88;;;15.00;99.90;;;;;;5011714;28;20034;-81
2023/07/31 01:28:09;;;;;;;11.98;6.10;;;15.00;99.90;;;;;;5010319;28;20046;-81
2023/07/31 01:30:47;;;;;;;9.27;6.28;;;15.00;99.90;;;;;;5010993;28;20375;-81
2023/07/31 01:33:13;;;;;;;7.95;6.50;;;15.00;99.90;;;;;;5011550;28;20018;-81
2023/07/31 01:35:41;;;;;;;7.60;5.80;;;15.00;99.90;;;;;;5011082;28;20067;-81
2023/07/31 01:38:07;;;;;;;6.38;5.18;;;15.00;99.90;;;;;;5074241;28;20018;-81
2023/07/31 01:40:32;;;;;;;10.88;5.70;;;15.00;99.90;;;;;;5010159;28;20018;-82
2023/07/31 01:42:58;;;;;;;7.72;5.57;;;15.00;99.90;;;;;;5010609;28;20021;-81
2023/07/31 01:45:24;;;;;;;5.80;5.22;;;15.00;99.90;;;;;;5010054;28;20032;-81
2023/07/31 01:47:49;;;;;;;7.32;5.35;;;15.00;99.90;;;;;;5010307;28;20029;-81
2023/07/31 01:50:15;;;;;;;6.68;5.20;;;15.10;99.90;;;;;;5011438;28;20076;-81
2023/07/31 01:52:40;;;;;;;6.30;5.00;;;15.00;99.90;;;;;;5011310;28;20399;-81
2023/07/31 01:55:06;;;;;;;6.72;5.40;;;15.00;99.90;;;;;;5011407;28;20083;-82
2023/07/31 01:57:32;;;;;;;5.45;5.00;;;15.10;99.90;;;;;;5010095;28;20060;-81
2023/07/31 01:59:57;;;;;;;5.85;5.28;;;15.10;99.90;;;;;;5009845;28;20037;-81
2023/07/31 02:02:23;;;;;;;5.70;5.20;;;15.10;99.90;;;;;;5010043;28;20014;-81
2023/07/31 02:04:49;;;;;;;6.32;5.65;;;15.10;99.90;;;;;;5009848;28;20018;-81
2023/07/31 02:07:14;;;;;;;5.22;4.72;;;15.10;99.90;;;;;;5011400;28;20061;-81
2023/07/31 02:09:40;;;;;;;6.22;5.43;;;15.10;99.90;;;;;;5009500;28;20109;-82
2023/07/31 02:12:08;;;;;;;7.05;5.68;;;15.10;99.90;;;;;;5009917;28;20067;-81
2023/07/31 02:14:34;;;;;;;5.70;5.10;;;15.10;99.90;;;;;;5008486;28;20108;-81
2023/07/31 02:17:00;;;;;;;6.47;5.47;;;15.10;99.90;;;;;;5009377;28;20049;-81
2023/07/31 02:19:25;;;;;;;5.90;5.32;;;15.10;99.90;;;;;;5009524;28;20538;-81
2023/07/31 02:21:51;;;;;;;6.97;5.70;;;15.10;99.90;;;;;;5010941;28;20026;-81
2023/07/31 02:24:16;;;;;;;6.22;5.38;;;15.10;99.90;;;;;;5008818;28;20041;-82
2023/07/31 02:26:42;;;;;;;6.25;4.55;;;15.10;99.90;;;;;;5009273;28;20049;-81
2023/07/31 02:29:08;;;;;;;5.50;5.00;;;15.10;99.90;;;;;;5009606;28;20022;-81
2023/07/31 02:31:34;;;;;;;6.00;5.40;;;15.10;99.90;;;;;;5009748;28;20057;-81
2023/07/31 02:34:00;;;;;;;7.38;6.25;;;15.10;99.90;;;;;;5009557;28;20018;-82
2023/07/31 02:36:25;;;;;;;10.85;6.20;;;15.10;99.90;;;;;;5039015;28;20362;-82
2023/07/31 02:38:51;;;;;;;6.80;5.97;;;15.10;99.90;;;;;;5043658;28;20041;-83
2023/07/31 02:41:17;;;;;;;6.60;5.75;;;15.20;99.90;;;;;;5010703;28;20025;-81
2023/07/31 02:43:42;;;;;;;7.70;6.80;;;15.10;99.90;;;;;;5009154;28;20432;-82
2023/07/31 02:46:08;;;;;;;8.68;5.78;;;15.10;99.90;;;;;;4998174;28;20067;-82
2023/07/31 02:48:33;;;;;;;6.55;5.80;;;15.20;99.90;;;;;;5012001;28;20018;-82
2023/07/31 02:50:59;;;;;;;6.15;5.57;;;15.20;99.90;;;;;;4996922;28;20526;-82
2023/07/31 02:53:25;;;;;;;8.93;5.47;;;15.20;99.90;;;;;;5010408;28;20050;-82
2023/07/31 02:55:50;;;;;;;6.32;5.03;;;15.20;99.90;;;;;;5010502;28;20026;-82
2023/07/31 02:58:16;;;;;;;8.57;5.68;;;15.30;99.90;;;;;;5010736;28;20045;-81
2023/07/31 03:00:42;;;;;;;9.05;5.22;;;15.30;99.90;;;;;;5009634;28;20026;-82
2023/07/31 03:03:08;;;;;;;8.30;5.35;;;15.30;99.90;;;;;;5010716;28;20030;-82
2023/07/31 03:05:34;;;;;;;8.82;5.60;;;15.30;99.90;;;;;;5009388;28;20098;-81
2023/07/31 03:07:59;;;;;;;6.47;5.35;;;15.30;99.90;;;;;;5009190;28;20018;-81
2023/07/31 03:10:25;;;;;;;6.55;5.85;;;15.30;99.90;;;;;;5009505;28;20045;-81
2023/07/31 03:12:50;;;;;;;7.88;5.90;;;15.30;99.90;;;;;;5010486;28;20095;-82
2023/07/31 03:15:16;;;;;;;8.32;5.15;;;15.30;99.90;;;;;;5008906;28;20029;-82
2023/07/31 03:17:42;;;;;;;6.00;5.45;;;15.30;99.90;;;;;;5009354;28;20022;-82
2023/07/31 03:20:08;;;;;;;7.32;5.70;;;15.40;99.90;;;;;;5009339;28;20523;-82
2023/07/31 03:22:35;;;;;;;6.55;5.22;;;15.40;99.90;;;;;;5010262;28;20030;-81
2023/07/31 03:25:01;;;;;;;5.95;5.25;;;15.40;99.90;;;;;;4989090;28;20018;-82
2023/07/31 03:27:27;;;;;;;6.22;5.63;;;15.40;99.90;;;;;;5003592;28;20033;-81
2023/07/31 03:29:52;;;;;;;5.82;5.00;;;15.50;99.90;;;;;;5008526;28;20452;-81
2023/07/31 03:32:18;;;;;;;6.90;5.22;;;15.40;99.90;;;;;;5008713;28;20057;-82
2023/07/31 03:34:43;;;;;;;6.05;5.40;;;15.50;99.90;;;;;;5010185;28;20032;-82
2023/07/31 03:37:09;;;;;;;6.32;5.72;;;15.50;99.90;;;;;;5069380;28;20089;-82
2023/07/31 03:39:35;;;;;;;6.90;5.85;;;15.50;99.90;;;;;;5011756;28;20119;-82
2023/07/31 03:42:01;;;;;;;6.50;5.65;;;15.50;99.90;;;;;;5008916;28;20067;-82
2023/07/31 03:44:26;;;;;;;6.10;5.15;;;15.50;99.90;;;;;;5009922;28;20071;-82
2023/07/31 03:46:52;;;;;;;8.32;6.00;;;15.50;99.90;;;;;;4999679;28;20018;-82
2023/07/31 03:49:17;;;;;;;6.30;5.70;;;15.50;99.90;;;;;;5006074;28;20050;-82
2023/07/31 03:51:43;;;;;;;6.55;5.35;;;15.50;99.90;;;;;;5008657;28;20026;-82
2023/07/31 03:54:09;;;;;;;7.22;5.65;;;15.40;99.90;;;;;;5009509;28;20045;-82
2023/07/31 03:56:34;;;;;;;6.60;5.63;;;15.40;99.90;;;;;;5009654;28;20026;-82
2023/07/31 03:59:00;;;;;;;6.60;6.00;;;15.30;99.90;;;;;;5008364;28;20037;-81
2023/07/31 04:01:26;;;;;;;6.60;5.88;;;15.30;99.90;;;;;;5009792;28;20487;-81
2023/07/31 04:03:51;;;;;;;8.55;6.47;;;15.30;99.90;;;;;;5008847;28;20025;-81
2023/07/31 04:06:18;;;;;;;7.32;6.32;;;15.30;99.90;;;;;;4996027;28;20084;-82
2023/07/31 04:08:45;;;;;;;7.05;6.40;;;15.30;99.90;;;;;;5008611;28;20433;-82
2023/07/31 04:11:11;;;;;;;9.48;6.65;;;15.30;99.90;;;;;;5008771;28;20383;-82
2023/07/31 04:13:37;;;;;;;10.25;6.50;;;15.30;99.90;;;;;;5009532;28;20022;-81
2023/07/31 04:16:03;;;;;;;9.35;6.75;;;15.30;99.90;;;;;;5009757;28;20499;-81
2023/07/31 04:18:30;;;;;;;7.15;5.70;;;15.30;99.90;;;;;;5009371;28;20045;-81
2023/07/31 04:20:58;;;;;;;6.18;5.38;;;15.40;99.90;;;;;;5009788;28;20030;-81
2023/07/31 04:23:24;;;;;;;6.80;5.85;;;15.40;99.90;;;;;;5009596;28;20030;-81
2023/07/31 04:25:50;;;;;;;9.50;5.93;;;15.30;99.90;;;;;;5008617;28;20421;-81
2023/07/31 04:28:15;;;;;;;6.05;5.43;;;15.30;99.90;;;;;;5009228;28;20029;-82
2023/07/31 04:30:41;;;;;;;6.60;6.00;;;15.20;99.90;;;;;;5008215;28;20030;-81
2023/07/31 04:33:06;;;;;;;6.28;5.72;;;15.30;99.90;;;;;;5007907;28;20046;-82
2023/07/31 04:35:32;;;;;;;7.93;6.20;;;15.30;99.90;;;;;;5007825;28;20018;-82
2023/07/31 04:37:58;;;;;;;8.15;5.63;;;15.40;99.90;;;;;;5073348;28;20037;-82
2023/07/31 04:40:23;;;;;;;7.97;5.82;;;15.40;99.90;;;;;;5009937;28;20030;-82
2023/07/31 04:42:49;;;;;;;9.75;5.43;;;15.40;99.90;;;;;;5011437;28;20030;-82
2023/07/31 04:45:15;;;;;;;7.03;5.97;;;15.40;99.90;;;;;;5001378;28;20113;-81
2023/07/31 04:47:40;;;;;;;5.28;4.78;;;15.50;99.90;;;;;;4998870;28;20034;-81
2023/07/31 04:50:06;;;;;;;5.78;5.28;;;15.50;99.90;;;;;;5011610;28;20492;-82
2023/07/31 04:52:32;;;;;;;6.47;4.47;;;15.60;99.90;;;;;;5010914;28;20077;-82
2023/07/31 04:54:57;;;;;;;5.40;4.78;;;15.70;99.90;;;;;;5013398;28;20063;-82
2023/07/31 04:57:23;;;;;;;5.10;4.63;;;15.80;99.90;;;;;;5012645;28;20031;-82
2023/07/31 04:59:49;;;;;;;6.43;4.30;;;15.90;99.90;;;;;;5011384;28;20476;-82
2023/07/31 05:02:14;;;;;;;4.80;4.40;;;16.20;99.90;;;;;;5012731;28;20106;-82
2023/07/31 05:04:40;;;;;;;4.97;4.50;;;16.40;99.90;;;;;;5012510;28;20022;-81
2023/07/31 05:07:05;;;;;;;6.82;4.43;;;16.50;99.90;;;;;;5012626;28;20033;-81
2023/07/31 05:09:31;;;;;;;5.60;4.13;;;16.60;99.90;;;;;;5011433;28;20119;-81
2023/07/31 05:11:57;;;;;;;3.97;3.50;;;16.60;99.90;;;;;;5007445;28;20026;-82
2023/07/31 05:14:23;;;;;;;5.15;3.67;;;16.80;99.90;;;;;;5012307;28;20022;-82
2023/07/31 05:16:49;;;;;;;5.60;4.18;;;16.90;99.90;;;;;;5012293;28;20018;-82
2023/07/31 05:19:14;;;;;;;4.35;3.80;;;16.90;99.90;;;;;;5011982;28;20079;-83
2023/07/31 05:21:40;;;;;;;6.57;3.90;;;16.90;99.90;;;;;;5012388;28;20384;-82
2023/07/31 05:24:06;;;;;;;4.05;3.60;;;16.90;99.90;;;;;;5011930;28;20029;-82
2023/07/31 05:26:31;;;;;;;4.43;3.85;;;16.90;99.90;;;;;;5011974;28;20478;-82
2023/07/31 05:28:58;;;;;;;4.05;3.08;;;16.80;99.90;;;;;;5010852;28;20022;-82
2023/07/31 05:31:24;;;;;;;5.88;3.67;;;16.80;99.90;;;;;;5006247;28;20101;-82
2023/07/31 05:33:50;;;;;;;5.70;4.28;;;16.90;99.90;;;;;;5010507;28;20368;-82
2023/07/31 05:36:16;;;;;;;4.47;4.07;;;16.80;99.90;;;;;;5033596;28;20031;-82
2023/07/31 05:38:44;;;;;;;7.10;4.15;;;16.90;99.90;;;;;;5051835;28;20037;-83
2023/07/31 05:41:10;;;;;;;5.03;3.75;;;17.10;99.90;;;;;;5006533;28;20026;-83
2023/07/31 05:43:35;;;;;;;4.88;3.88;;;17.00;99.90;;;;;;5011626;28;20036;-82
2023/07/31 05:46:01;;;;;;;7.30;3.83;;;17.20;99.90;;;;;;5011924;28;20083;-83
2023/07/31 05:48:27;;;;;;;4.05;3.63;;;17.30;99.90;;;;;;5003625;28;20101;-83
2023/07/31 05:50:52;;;;;;;5.47;4.40;;;17.40;99.90;;;;;;5010872;28;20033;-83
2023/07/31 05:53:18;;;;;;;6.53;3.10;;;17.60;99.90;;;;;;4996441;28;20035;-83
2023/07/31 05:55:43;;;;;;;5.55;3.15;;;17.70;99.90;;;;;;4995896;28;20106;-82
2023/07/31 05:58:09;;;;;;;5.53;3.75;;;17.70;99.90;;;;;;5002767;28;20034;-84
2023/07/31 06:00:35;;;;;;;4.00;3.38;;;17.90;99.90;;;;;;5007867;28;20034;-83
2023/07/31 06:03:00;;;;;;;5.03;3.00;;;17.90;99.90;;;;;;5009801;28;20030;-84
2023/07/31 06:05:28;;;;;;;3.10;2.83;;;18.00;99.90;;;;;;5005754;28;20109;-82
2023/07/31 06:07:53;;;;;;;3.85;3.42;;;17.90;99.90;;;;;;5006964;28;20487;-80
2023/07/31 06:10:19;;;;;;;4.65;3.40;;;17.90;99.90;;;;;;5006946;28;20021;-81
2023/07/31 06:12:45;;;;;;;5.03;3.53;;;18.00;99.90;;;;;;5008050;28;20030;-81
2023/07/31 06:15:11;;;;;;;8.20;3.67;;;17.90;99.90;;;;;;5008137;28;20445;-82
2023/07/31 06:17:36;;;;;;;7.22;3.80;;;18.00;99.90;;;;;;5008845;28;20029;-82
2023/07/31 06:20:05;;;;;;;5.22;3.67;;;18.10;99.90;;;;;;5010363;28;20026;-81
2023/07/31 06:22:30;;;;;;;5.15;2.83;;;18.40;99.90;;;;;;5009846;28;20426;-81
2023/07/31 06:24:57;;;;;;;8.10;3.60;;;18.60;99.90;;;;;;5010181;28;20026;-82
2023/07/31 06:27:22;;;;;;;4.45;3.08;;;18.80;99.90;;;;;;4996158;28;20104;-82
2023/07/31 06:29:48;;;;;;;6.03;3.05;;;18.80;99.90;;;;;;5000804;28;20105;-85
2023/07/31 06:32:14;;;;;;;5.10;2.97;;;18.80;99.90;;;;;;5019564;28;20511;-83
2023/07/31 06:34:39;;;;;;;9.02;4.60;;;18.70;99.90;;;;;;5027594;28;20029;-83
2023/07/31 06:37:05;;;;;;;5.18;3.08;;;18.80;99.90;;;;;;5040536;28;20124;-82
2023/07/31 06:39:31;;;;;;;6.55;3.45;;;18.90;99.90;;;;;;5001042;28;20662;-82
2023/07/31 06:41:56;;;;;;;5.65;3.45;;;18.80;99.90;;;;;;5002884;28;20030;-83
2023/07/31 06:44:22;;;;;;;8.02;3.00;;;18.90;99.90;;;;;;5002651;28;20079;-83
2023/07/31 06:46:47;;;;;;;3.53;3.20;;;18.90;99.90;;;;;;5002520;28;20026;-83
2023/07/31 06:49:15;;;;;;;5.32;3.58;;;19.10;99.90;;;;;;5001368;28;20067;-83
2023/07/31 06:51:41;;;;;;;8.45;3.70;;;19.40;99.90;;;;;;4994492;28;20033;-84
2023/07/31 06:54:07;;;;;;;6.13;3.17;;;19.50;99.90;;;;;;5002183;28;20061;-82
2023/07/31 06:56:33;;;;;;;6.93;3.33;;;19.50;99.90;;;;;;5008634;28;20022;-82
2023/07/31 06:58:59;;;;;;;5.47;3.00;;;19.80;99.90;;;;;;5007679;28;20037;-82
2023/07/31 07:01:24;;;;;;;3.60;2.90;;;19.90;99.90;;;;;;5007835;28;20018;-82
2023/07/31 07:03:53;;;;;;;7.75;3.67;;;20.20;99.90;;;;;;5007484;28;20030;-81
2023/07/31 07:06:18;;;;;;;3.58;3.28;;;20.30;98.90;;;;;;5008588;28;20022;-81
2023/07/31 07:08:44;;;;;;;3.80;2.72;;;20.40;98.90;;;;;;4989097;28;20049;-81
2023/07/31 07:11:10;;;;;;;5.53;3.25;;;20.50;92.40;;;;;;4994157;28;20026;-80
2023/07/31 07:13:36;;;;;;;5.22;2.72;;;20.60;84.90;;;;;;4993328;28;20105;-82
2023/07/31 07:16:01;;;;;;;5.72;2.88;;;20.50;82.90;;;;;;5005132;28;20069;-82
2023/07/31 07:18:27;;;;;;;4.47;2.65;;;20.40;87.60;;;;;;4997679;28;20087;-81
2023/07/31 07:20:54;;;;;;;3.97;2.88;;;20.40;90.10;;;;;;4995976;28;20029;-81
2023/07/31 07:23:20;;;;;;;3.40;2.70;;;20.30;89.00;;;;;;4997409;28;20105;-81
2023/07/31 07:25:47;;;;;;;3.95;2.67;;;20.50;87.80;;;;;;4999666;28;20029;-81
2023/07/31 07:28:13;;;;;;;3.17;2.30;;;20.70;87.70;;;;;;5005378;28;20040;-81
2023/07/31 07:30:40;;;;;;;3.70;2.53;;;21.00;85.30;;;;;;4994259;28;20447;-80
2023/07/31 07:33:05;;;;;;;5.13;2.65;;;21.00;83.70;;;;;;4997243;28;20097;-81
2023/07/31 07:35:34;;;;;;;4.00;2.78;;;21.10;78.90;;;;;;4993426;28;20097;-84
2023/07/31 07:38:01;;;;;;;3.88;2.70;;;21.40;85.40;;;;;;5059679;27;20030;-84
2023/07/31 07:40:27;;;;;;;3.90;2.75;;;21.70;82.00;;;;;;4996279;28;20042;-84
2023/07/31 07:42:52;;;;;;;3.50;2.40;;;21.40;78.30;;;;;;4992049;28;20031;-84
2023/07/31 07:45:18;;;;;;;5.78;2.47;;;21.10;78.20;;;;;;4992177;28;20484;-83
2023/07/31 07:47:43;;;;;;;5.30;2.58;;;21.20;78.20;;;;;;5003663;28;20015;-83
2023/07/31 07:50:09;;;;;;;3.17;1.98;;;21.20;76.80;;;;;;4994291;28;20409;-83
2023/07/31 07:52:35;;;;;;;3.15;2.22;;;21.50;75.40;;;;;;5000405;28;20054;-83
2023/07/31 07:55:01;;;;;;;2.85;2.20;;;21.60;74.20;;;;;;4993728;28;20038;-81
2023/07/31 07:57:27;;;;;;;2.60;2.22;;;21.50;75.20;;;;;;5000140;28;20060;-81
2023/07/31 07:59:53;;;;;;;3.50;2.35;;;21.30;76.10;;;;;;5002099;28;20038;-82
2023/07/31 08:02:18;;;;;;;5.00;2.45;;;21.20;74.20;;;;;;4997628;28;20025;-80
2023/07/31 08:04:44;;;;;;;3.90;1.90;;;21.60;75.40;;;;;;5001607;28;20054;-83
2023/07/31 08:07:13;;;;;;;4.78;1.77;;;21.90;70.50;;;;;;5000565;28;20486;-83
2023/07/31 08:09:39;;;;;;;4.28;2.13;;;21.50;69.10;;;;;;5004166;28;20077;-83
2023/07/31 08:12:05;;;;;;;3.63;2.50;;;21.20;70.90;;;;;;5007510;28;20105;-84
2023/07/31 08:14:31;;;;;;;4.30;2.67;;;21.30;70.80;;;;;;4993965;28;20067;-83
2023/07/31 08:16:57;;;;;;;2.97;2.28;;;21.50;73.10;;;;;;4997697;28;20034;-84
2023/07/31 08:19:22;;;;;;;3.58;2.17;;;21.80;71.50;;;;;;5011047;28;20030;-80
2023/07/31 08:21:48;;;;;;;2.53;1.70;;;21.70;70.20;;;;;;5010336;28;20034;-83
2023/07/31 08:24:13;;;;;;;2.83;1.92;;;21.60;69.20;;;;;;5001064;28;20025;-83
2023/07/31 08:26:39;;;;;;;3.55;2.25;;;22.00;70.00;;;;;;4996343;28;20031;-83
2023/07/31 08:29:05;;;;;;;4.32;1.85;;;22.00;68.20;;;;;;4990979;28;20498;-84
2023/07/31 08:31:30;;;;;;;4.05;2.47;;;21.90;66.20;;;;;;5005293;28;20490;-83
2023/07/31 08:33:56;;;;;;;8.52;2.38;;;21.60;64.70;;;;;;4997945;28;20476;-83
2023/07/31 08:36:22;;;;;;;4.07;1.95;;;21.30;66.70;;;;;;5024527;28;20020;-83
2023/07/31 08:38:48;;;;;;;4.93;2.25;;;21.50;70.10;;;;;;5047659;28;20107;-83
2023/07/31 08:41:13;;;;;;;5.72;2.50;;;21.60;69.40;;;;;;5012195;28;20474;-82
2023/07/31 08:43:39;;;;;;;3.28;2.10;;;21.70;68.10;;;;;;5010853;28;20018;-81
2023/07/31 08:46:05;;;;;;;3.83;2.42;;;21.80;67.70;;;;;;5012694;28;20022;-81
2023/07/31 08:48:33;;;;;;;3.40;2.05;;;21.80;69.50;;;;;;5010700;28;20036;-82
2023/07/31 08:50:58;;;;;;;4.45;2.20;;;21.70;70.80;;;;;;5012012;28;20030;-81
2023/07/31 08:53:24;;;;;;;4.68;2.20;;;21.60;67.00;;;;;;5009906;28;20056;-82
2023/07/31 08:55:52;;;;;;;9.25;2.67;;;21.60;66.80;;;;;;5010648;28;20105;-81
2023/07/31 08:58:19;;;;;;;3.50;2.00;;;21.90;68.60;;;;;;5011005;28;20036;-80
2023/07/31 09:00:47;;;;;;;4.45;1.90;;;21.90;67.60;;;;;;5011955;28;20029;-80
2023/07/31 09:03:18;;;;;;;3.70;1.30;;;21.80;67.50;;;;;;5009758;28;20483;-80
2023/07/31 09:05:45;;;;;;;3.20;2.38;;;21.60;67.80;;;;;;5010780;28;20079;-80
2023/07/31 09:08:13;;;;;;;2.55;1.73;;;21.60;69.30;;;;;;5012385;28;20023;-81
2023/07/31 09:10:46;;;;;;;4.57;2.13;;;21.50;69.30;;;;;;5012124;28;20101;-81
2023/07/31 09:13:12;;;;;;;4.55;2.03;;;21.70;67.40;;;;;;5010783;28;20054;-82
2023/07/31 09:15:40;;;;;;;4.35;2.08;;;22.00;68.50;;;;;;5012170;28;20049;-83
2023/07/31 09:18:06;;;;;;;3.75;2.15;;;21.80;66.30;;;;;;5008501;28;20026;-83
2023/07/31 09:20:33;;;;;;;3.58;1.73;;;21.80;66.70;;;;;;4996007;28;20045;-84
2023/07/31 09:23:10;;;;;;;4.28;1.83;;;21.70;67.00;;;;;;5004627;28;20548;-83
2023/07/31 09:25:37;;;;;;;2.50;1.67;;;21.30;67.20;;;;;;4997367;28;20540;-83
2023/07/31 09:28:05;;;;;;;4.47;2.10;;;21.40;68.50;;;;;;5007564;28;20102;-84
2023/07/31 09:30:43;;;;;;;4.78;2.28;;;21.60;69.60;;;;;;5008895;28;20026;-85
2023/07/31 09:33:09;;;;;;;4.68;2.17;;;22.00;71.10;;;;;;4999471;28;20048;-83
2023/07/31 09:35:37;;;;;;;3.60;2.45;;;22.20;65.60;;;;;;5003536;28;20036;-84
2023/07/31 09:38:05;;;;;;;10.07;2.72;;;22.60;65.70;;;;;;5069973;28;20102;-83
2023/07/31 09:40:33;;;;;;;4.32;2.03;;;22.80;65.20;;;;;;5009940;28;20076;-85
2023/07/31 09:43:01;;;;;;;3.17;2.08;;;23.10;62.00;;;;;;5009741;28;20033;-84
2023/07/31 09:45:28;;;;;;;6.18;2.70;;;23.40;59.90;;;;;;5009204;28;20037;-83
2023/07/31 09:47:55;;;;;;;4.15;1.80;;;23.60;59.50;;;;;;5011198;28;20045;-85
2023/07/31 09:50:22;;;;;;;5.38;2.20;;;23.90;58.20;;;;;;5009894;28;20026;-85
2023/07/31 09:52:48;;;;;;;3.90;2.30;;;23.90;56.90;;;;;;5010418;28;20038;-84
2023/07/31 09:55:14;;;;;;;3.08;1.67;;;24.10;57.10;;;;;;5009751;28;20101;-85
2023/07/31 09:57:45;;;;;;;6.28;2.20;;;24.30;57.50;;;;;;5010879;28;20022;-85
2023/07/31 10:00:12;;;;;;;5.75;2.20;;;24.30;57.10;;;;;;5009542;28;20030;-84
2023/07/31 10:02:39;;;;;;;5.90;2.30;;;24.00;56.80;;;;;;5010264;28;20052;-85
2023/07/31 10:05:06;;;;;;;8.40;2.58;;;23.90;57.30;;;;;;5009570;28;20752;-85
2023/07/31 10:07:36;;;;;;;3.13;2.67;;;23.50;59.20;;;;;;5008704;28;20018;-84
2023/07/31 10:10:03;;;;;;;9.10;2.97;;;23.70;58.90;;;;;;5008377;28;20018;-83
2023/07/31 10:12:31;;;;;;;5.60;2.88;;;23.90;59.40;;;;;;5008384;28;20113;-85
2023/07/31 10:14:58;;;;;;;5.80;2.58;;;23.90;56.80;;;;;;5010896;28;20495;-84
2023/07/31 10:17:25;;;;;;;6.05;2.47;;;24.10;57.70;;;;;;5010335;28;20030;-84
2023/07/31 10:19:51;;;;;;;4.55;2.40;;;24.30;57.50;;;;;;5009689;28;20057;-85
2023/07/31 10:22:20;;;;;;;5.93;2.72;;;24.30;58.10;;;;;;5010210;28;20049;-84
2023/07/31 10:24:46;;;;;;;4.22;2.67;;;24.00;58.40;;;;;;5011279;28;20026;-84
2023/07/31 10:27:12;;;;;;;5.40;2.88;;;23.80;58.60;;;;;;5011422;28;20429;-84
2023/07/31 10:29:39;;;;;;;3.63;2.78;;;24.10;60.00;;;;;;5023828;28;20025;-84
2023/07/31 10:32:08;;;;;;;4.43;2.53;;;24.20;59.70;;;;;;5011218;28;20556;-84
2023/07/31 10:34:35;;;;;;;3.80;2.25;;;24.50;59.80;;;;;;5010553;28;20045;-83
2023/07/31 10:37:27;;;;;;;5.68;2.67;;;24.30;58.80;;;;;;5066329;28;20023;-83
2023/07/31 10:40:00;;;;;;;5.43;2.60;;;24.50;59.10;;;;;;4999705;28;20488;-84
2023/07/31 10:42:34;;;;;;;7.22;3.38;;;24.30;57.70;;;;;;5010640;28;20151;-84
2023/07/31 10:45:06;;;;;;;6.68;2.95;;;23.60;58.20;;;;;;5010927;28;20122;-83
2023/07/31 10:47:39;;;;;;;10.73;3.17;;;23.40;58.50;;;;;;5010044;28;20048;-83
2023/07/31 10:50:12;;;;;;;4.95;2.65;;;23.10;59.50;;;;;;5010937;28;20046;-82
2023/07/31 10:52:37;;;;;;;5.55;2.70;;;23.10;60.00;;;;;;5010240;28;20076;-83
2023/07/31 10:55:15;;;;;;;5.78;2.72;;;22.90;59.00;;;;;;5010715;28;20053;-83
2023/07/31 10:57:45;;;;;;;4.43;3.13;;;23.00;59.10;;;;;;5010944;28;20099;-83
2023/07/31 11:00:29;;;;;;;7.05;3.10;;;23.10;60.00;;;;;;5009422;28;20137;-83
2023/07/31 11:03:02;;;;;;;5.10;2.42;;;23.20;59.70;;;;;;5010134;28;20170;-83
2023/07/31 11:05:53;;;;;;;6.32;2.78;;;23.60;60.00;;;;;;5010433;28;20083;-83
2023/07/31 11:08:30;;;;;;;5.05;2.45;;;24.00;58.80;;;;;;5010263;28;20018;-83
2023/07/31 11:11:01;;;;;;;5.47;2.50;;;24.10;55.40;;;;;;5010833;28;20547;-84
2023/07/31 11:13:54;;;;;;;4.95;2.28;;;24.00;57.20;;;;;;5010228;28;20022;-84
2023/07/31 11:16:24;;;;;;;3.80;2.70;;;23.90;57.00;;;;;;5010522;28;20029;-84
2023/07/31 11:18:51;;;;;;;3.05;2.17;;;23.70;57.50;;;;;;5009271;28;20087;-83
2023/07/31 11:21:22;;;;;;;3.10;2.17;;;23.90;57.40;;;;;;5009160;28;20022;-83
2023/07/31 11:23:50;;;;;;;4.37;2.23;;;23.90;56.60;;;;;;5009321;28;20494;-83
2023/07/31 11:26:17;;;;;;;6.93;2.72;;;24.00;56.50;;;;;;5010439;28;20357;-84
2023/07/31 11:28:43;;;;;;;3.60;2.05;;;24.00;56.10;;;;;;5009076;28;20022;-84
2023/07/31 11:31:11;;;;;;;5.82;2.78;;;24.30;55.80;;;;;;5010101;28;20026;-84
2023/07/31 11:33:37;;;;;;;4.03;2.20;;;23.80;54.00;;;;;;5010382;28;20030;-83
2023/07/31 11:36:04;;;;;;;5.03;2.20;;;23.70;54.50;;;;;;5025170;28;20119;-83
2023/07/31 11:38:31;;;;;;;3.85;2.38;;;23.20;56.10;;;;;;5057386;28;20030;-83
2023/07/31 11:41:02;;;;;;;5.50;2.75;;;23.10;57.80;;;;;;5009651;28;20506;-83
2023/07/31 11:43:28;;;;;;;3.33;1.98;;;22.90;58.30;;;;;;5008948;28;20026;-83
2023/07/31 11:46:02;;;;;;;6.82;2.33;;;23.10;58.10;;;;;;5008713;28;20048;-84
2023/07/31 11:48:30;;;;;;;4.53;2.40;;;23.30;57.30;;;;;;5008980;28;20034;-83
2023/07/31 11:51:01;;;;;;;7.03;2.88;;;23.50;56.30;;;;;;5003090;28;20053;-83
2023/07/31 11:53:30;;;;;;;4.40;2.67;;;23.50;55.00;;;;;;5002344;28;20049;-83
2023/07/31 11:55:58;;;;;;;3.70;1.83;;;23.70;55.40;;;;;;5010050;28;20038;-83
2023/07/31 11:58:24;;;;;;;4.55;1.95;;;24.00;55.90;;;;;;5008361;28;20095;-83
2023/07/31 12:00:51;;;;;;;6.32;2.30;;;24.30;56.80;;;;;;5002407;28;20483;-84
2023/07/31 12:03:18;;;;;;;4.70;1.90;;;24.50;57.90;;;;;;5002826;28;20041;-83
2023/07/31 12:05:44;;;;;;;6.30;2.22;;;24.30;55.40;;;;;;4998017;28;20030;-81
2023/07/31 12:08:14;;;;;;;5.80;2.38;;;24.30;54.30;;;;;;4994402;28;20023;-82
2023/07/31 12:10:40;;;;;;;2.15;1.88;;;24.20;54.50;;;;;;4999905;28;20049;-81
2023/07/31 12:13:15;;;;;;;3.63;2.03;;;24.30;55.20;;;;;;5009316;28;20483;-81
2023/07/31 12:15:43;;;;;;;6.60;2.22;;;24.60;56.10;;;;;;4995582;28;20023;-81
2023/07/31 12:18:11;;;;;;;8.30;3.15;;;24.60;54.80;;;;;;4995746;28;20026;-82
2023/07/31 12:20:42;;;;;;;3.97;2.38;;;24.40;54.10;;;;;;4994780;28;20541;-82
2023/07/31 12:23:12;;;;;;;7.90;2.50;;;24.70;55.20;;;;;;4998849;28;20034;-82
2023/07/31 12:25:37;;;;;;;4.50;2.22;;;24.60;55.00;;;;;;5009407;28;20484;-81
2023/07/31 12:28:11;;;;;;;2.50;2.10;;;24.20;53.10;;;;;;5003387;28;20022;-81
2023/07/31 12:30:38;;;;;;;2.72;2.00;;;24.20;53.80;;;;;;4994853;28;20034;-81
2023/07/31 12:33:12;;;;;;;3.20;2.20;;;24.30;54.30;;;;;;4991797;28;20030;-82
2023/07/31 12:35:40;;;;;;;2.67;1.70;;;24.50;54.70;;;;;;4996446;28;20018;-83
2023/07/31 12:38:06;;;;;;;3.53;2.60;;;24.80;53.70;;;;;;5030738;28;20132;-82
2023/07/31 12:40:32;;;;;;;4.70;1.95;;;25.10;53.80;;;;;;4998366;28;20069;-81
2023/07/31 12:43:00;;;;;;;5.20;2.10;;;25.30;53.30;;;;;;4992274;28;20029;-83
2023/07/31 12:45:26;;;;;;;3.83;1.90;;;25.50;53.90;;;;;;5009175;28;20046;-84